Time;durP1;ratioP1;P1;durP2;ratioP2;P2;SDS_P1;SDS_P2;PMS_P1;PMS_P2;Temp;Humidity;BMP_temperature;BMP_pressure;BME280_temperature;BME280_humidity;BME280_pressure;Samples;Min_cycle;Max_cycle;Signal;HPM_P1;HPM_P2
2024/03/03 00:00:24;;;;;;;13.97;8.63;;;4.90;99.90;;;;;;2054978;28;20235;-74
2024/03/03 00:01:25;;;;;;;14.50;8.70;;;4.90;99.90;;;;;;2054039;28;20252;-75
2024/03/03 00:02:26;;;;;;;13.83;8.17;;;4.80;99.90;;;;;;2054053;28;20226;-75
2024/03/03 00:03:26;;;;;;;15.53;9.13;;;4.90;99.90;;;;;;2059059;28;20289;-72
2024/03/03 00:04:27;;;;;;;15.53;8.50;;;4.90;99.90;;;;;;2056882;28;20226;-72
2024/03/03 00:05:28;;;;;;;14.30;9.33;;;4.90;99.90;;;;;;2073675;28;20652;-71
2024/03/03 00:06:28;;;;;;;11.63;7.07;;;5.00;99.90;;;;;;2065838;28;20252;-72
2024/03/03 00:07:29;;;;;;;11.30;6.30;;;5.00;99.90;;;;;;2046023;28;20304;-71
2024/03/03 00:08:30;;;;;;;11.23;6.83;;;4.90;99.90;;;;;;2056611;28;20589;-72
2024/03/03 00:09:32;;;;;;;10.20;5.93;;;5.00;99.90;;;;;;2063259;28;20263;-73
2024/03/03 00:10:32;;;;;;;8.80;5.88;;;5.00;99.90;;;;;;2064617;28;20300;-73
2024/03/03 00:11:36;;;;;;;9.50;6.40;;;5.10;99.90;;;;;;2062070;28;20282;-72
2024/03/03 00:12:38;;;;;;;9.07;6.20;;;5.10;99.90;;;;;;2059555;28;20265;-70
2024/03/03 00:13:38;;;;;;;9.30;6.05;;;5.10;99.90;;;;;;2064454;28;20245;-75
2024/03/03 00:14:39;;;;;;;8.07;6.13;;;5.00;99.90;;;;;;2071435;28;20296;-71
2024/03/03 00:15:40;;;;;;;7.13;4.93;;;5.00;99.90;;;;;;2074038;28;20221;-72
2024/03/03 00:16:43;;;;;;;8.40;5.50;;;4.90;99.90;;;;;;2066787;28;20376;-72
2024/03/03 00:17:44;;;;;;;8.07;5.18;;;5.00;99.90;;;;;;2056832;28;20253;-72
2024/03/03 00:18:44;;;;;;;6.03;4.43;;;5.00;99.90;;;;;;2060949;28;20226;-73
2024/03/03 00:19:45;;;;;;;8.83;5.43;;;5.00;99.90;;;;;;2068916;28;20268;-71
2024/03/03 00:20:46;;;;;;;8.13;5.03;;;5.00;99.90;;;;;;2054441;28;20719;-71
2024/03/03 00:21:46;;;;;;;7.33;5.13;;;5.00;99.90;;;;;;2064866;28;20268;-73
2024/03/03 00:22:47;;;;;;;9.43;4.77;;;4.90;99.90;;;;;;2056025;28;20186;-72
2024/03/03 00:23:48;;;;;;;8.20;4.63;;;4.90;99.90;;;;;;2065270;28;20198;-71
2024/03/03 00:24:48;;;;;;;7.70;5.50;;;4.90;99.90;;;;;;2065158;28;20214;-71
2024/03/03 00:25:49;;;;;;;5.80;4.27;;;5.00;99.90;;;;;;2064797;28;20213;-71
2024/03/03 00:26:50;;;;;;;7.67;5.13;;;5.00;99.90;;;;;;2073123;28;20188;-73
2024/03/03 00:27:50;;;;;;;7.10;5.17;;;5.00;99.90;;;;;;2063043;28;20201;-72
2024/03/03 00:28:51;;;;;;;8.27;4.70;;;5.00;99.90;;;;;;2069252;28;20205;-71
2024/03/03 00:29:52;;;;;;;8.27;5.10;;;5.10;99.90;;;;;;2053763;28;20198;-74
2024/03/03 00:30:52;;;;;;;8.00;4.73;;;5.10;99.90;;;;;;2065906;28;20201;-70
2024/03/03 00:31:53;;;;;;;8.93;5.13;;;5.10;99.90;;;;;;2075868;28;20545;-71
2024/03/03 00:32:54;;;;;;;8.93;5.30;;;5.10;99.90;;;;;;2070795;28;20190;-72
2024/03/03 00:33:54;;;;;;;9.77;5.93;;;5.20;99.90;;;;;;2073567;28;20194;-72
2024/03/03 00:34:56;;;;;;;8.60;5.63;;;5.20;99.90;;;;;;2072750;28;20603;-73
2024/03/03 00:35:57;;;;;;;8.45;4.68;;;5.20;99.90;;;;;;2067212;28;20186;-73
2024/03/03 00:36:57;;;;;;;8.60;5.53;;;5.20;99.90;;;;;;2063515;28;20178;-73
2024/03/03 00:37:58;;;;;;;9.63;5.00;;;5.20;99.90;;;;;;2061234;28;20715;-73
2024/03/03 00:38:59;;;;;;;7.07;4.30;;;5.20;99.90;;;;;;2062857;28;20209;-73
2024/03/03 00:40:00;;;;;;;8.43;4.93;;;5.20;99.90;;;;;;2072249;28;20430;-72
2024/03/03 00:41:00;;;;;;;8.63;5.87;;;5.30;99.90;;;;;;2058767;28;20594;-73
2024/03/03 00:42:01;;;;;;;7.63;5.20;;;5.30;99.90;;;;;;2067608;28;20182;-70
2024/03/03 00:43:02;;;;;;;7.83;4.63;;;5.30;99.90;;;;;;2074550;28;20242;-71
2024/03/03 00:44:03;;;;;;;7.43;4.80;;;5.30;99.90;;;;;;2062550;28;20190;-71
2024/03/03 00:45:04;;;;;;;8.77;4.73;;;5.20;99.90;;;;;;2067705;28;20687;-72
2024/03/03 00:46:05;;;;;;;8.30;4.85;;;5.20;99.90;;;;;;2056615;28;20546;-72
2024/03/03 00:47:06;;;;;;;7.43;4.80;;;5.30;99.90;;;;;;2063817;28;20296;-71
2024/03/03 00:48:07;;;;;;;7.60;5.37;;;5.30;99.90;;;;;;2075937;28;20335;-72
2024/03/03 00:49:07;;;;;;;7.80;5.23;;;5.40;99.90;;;;;;2074623;28;20299;-72
2024/03/03 00:50:08;;;;;;;9.17;4.63;;;5.40;99.90;;;;;;2074559;28;20340;-73
2024/03/03 00:51:09;;;;;;;7.57;4.72;;;5.30;99.90;;;;;;2074414;28;20706;-72
2024/03/03 00:52:10;;;;;;;9.63;5.43;;;5.30;99.90;;;;;;2066693;28;20248;-72
2024/03/03 00:53:11;;;;;;;13.47;5.83;;;5.30;99.90;;;;;;2075783;28;20263;-72
2024/03/03 00:54:12;;;;;;;7.80;5.60;;;5.40;99.90;;;;;;2071874;28;20270;-73
2024/03/03 00:55:12;;;;;;;8.40;5.05;;;5.30;99.90;;;;;;2072229;28;20235;-72
2024/03/03 00:56:13;;;;;;;5.77;4.80;;;5.30;99.90;;;;;;2074596;28;20282;-72
2024/03/03 00:57:14;;;;;;;9.23;4.53;;;5.20;99.90;;;;;;2064793;28;20232;-71
2024/03/03 00:58:15;;;;;;;7.03;4.90;;;5.20;99.90;;;;;;2057685;28;20317;-73
2024/03/03 00:59:15;;;;;;;10.48;6.43;;;5.20;99.90;;;;;;2055868;28;20288;-71
2024/03/03 01:00:17;;;;;;;10.27;6.77;;;5.30;99.90;;;;;;2057538;28;20226;-71
2024/03/03 01:01:18;;;;;;;12.32;6.88;;;5.20;99.90;;;;;;2065964;28;20233;-71
2024/03/03 01:02:18;;;;;;;12.30;7.90;;;5.20;99.90;;;;;;2066527;28;20607;-70
2024/03/03 01:03:19;;;;;;;11.10;6.30;;;5.30;99.90;;;;;;2075832;28;20239;-71
2024/03/03 01:04:20;;;;;;;11.40;7.00;;;5.20;99.90;;;;;;2065983;28;20237;-72
2024/03/03 01:05:21;;;;;;;11.53;7.00;;;5.20;99.90;;;;;;2054996;28;20307;-74
2024/03/03 01:06:22;;;;;;;11.52;7.35;;;5.30;99.90;;;;;;2058559;28;20280;-71
2024/03/03 01:07:23;;;;;;;12.00;7.40;;;5.30;99.90;;;;;;2046408;28;20701;-72
2024/03/03 01:08:23;;;;;;;11.20;7.13;;;5.40;99.90;;;;;;2061085;28;20233;-75
2024/03/03 01:09:24;;;;;;;13.40;7.37;;;5.40;99.90;;;;;;2062081;28;20312;-73
2024/03/03 01:10:25;;;;;;;11.97;7.00;;;5.40;99.90;;;;;;2051405;28;20622;-73
2024/03/03 01:11:26;;;;;;;9.27;5.83;;;5.40;99.90;;;;;;2070146;28;20972;-73
2024/03/03 01:12:26;;;;;;;10.13;6.47;;;5.40;99.90;;;;;;2074643;28;20322;-73
2024/03/03 01:13:27;;;;;;;12.40;7.13;;;5.40;99.90;;;;;;2068447;28;20251;-74
2024/03/03 01:14:28;;;;;;;12.20;7.23;;;5.40;99.90;;;;;;2063283;28;20713;-72
2024/03/03 01:15:28;;;;;;;12.77;8.10;;;5.40;99.90;;;;;;2054320;28;20266;-73
2024/03/03 01:16:29;;;;;;;11.73;7.57;;;5.50;99.90;;;;;;2046678;28;20227;-72
2024/03/03 01:17:30;;;;;;;12.93;7.20;;;5.50;99.90;;;;;;2055544;28;20316;-73
2024/03/03 01:18:30;;;;;;;9.70;6.53;;;5.60;99.90;;;;;;2071572;28;20245;-73
2024/03/03 01:19:31;;;;;;;12.03;5.83;;;5.40;99.90;;;;;;2066358;28;20225;-75
2024/03/03 01:20:32;;;;;;;9.20;6.30;;;5.30;99.90;;;;;;2066695;28;20236;-75
2024/03/03 01:21:33;;;;;;;11.53;6.77;;;5.40;99.90;;;;;;2060243;28;20460;-74
2024/03/03 01:22:34;;;;;;;14.43;9.00;;;5.40;99.90;;;;;;2050629;28;20260;-74
2024/03/03 01:23:35;;;;;;;13.38;8.05;;;5.50;99.90;;;;;;2051138;28;20222;-73
2024/03/03 01:24:37;;;;;;;11.77;8.03;;;5.50;99.90;;;;;;2055876;28;20756;-72
2024/03/03 01:25:38;;;;;;;13.38;7.63;;;5.40;99.90;;;;;;2054661;28;20286;-73
2024/03/03 01:26:39;;;;;;;14.37;7.30;;;5.40;99.90;;;;;;2060906;28;20700;-71
2024/03/03 01:27:39;;;;;;;15.03;8.87;;;5.50;99.90;;;;;;2072871;28;20233;-70
2024/03/03 01:28:40;;;;;;;11.30;7.40;;;5.50;99.90;;;;;;2074044;28;20269;-71
2024/03/03 01:29:41;;;;;;;12.93;7.63;;;5.50;99.90;;;;;;2063270;28;20273;-72
2024/03/03 01:30:41;;;;;;;11.57;6.83;;;5.50;99.90;;;;;;2072840;28;20259;-71
2024/03/03 01:31:43;;;;;;;14.27;8.00;;;5.60;99.90;;;;;;2075252;28;21071;-71
2024/03/03 01:32:43;;;;;;;12.27;7.35;;;5.60;99.90;;;;;;2064588;28;20265;-72
2024/03/03 01:33:44;;;;;;;13.30;7.20;;;5.70;99.90;;;;;;2073682;28;20257;-71
2024/03/03 01:34:45;;;;;;;12.50;6.83;;;5.60;99.90;;;;;;2075974;28;20221;-72
2024/03/03 01:35:45;;;;;;;13.13;7.77;;;5.60;99.90;;;;;;2066111;28;20284;-71
2024/03/03 01:36:46;;;;;;;8.77;5.73;;;5.60;99.90;;;;;;2062481;28;21050;-70
2024/03/03 01:37:47;;;;;;;8.50;6.63;;;5.60;99.90;;;;;;2056445;28;20186;-70
2024/03/03 01:38:47;;;;;;;10.83;6.97;;;5.60;99.90;;;;;;2065065;28;20175;-72
2024/03/03 01:39:48;;;;;;;8.93;5.93;;;5.60;99.90;;;;;;2074096;28;20703;-72
2024/03/03 01:40:51;;;;;;;9.40;6.23;;;5.60;99.90;;;;;;2062762;28;20178;-73
2024/03/03 01:41:51;;;;;;;9.65;5.55;;;5.60;99.90;;;;;;2059266;28;20677;-73
2024/03/03 01:42:56;;;;;;;8.17;5.03;;;5.50;99.90;;;;;;2062749;28;20182;-73
2024/03/03 01:43:58;;;;;;;9.85;5.22;;;5.40;99.90;;;;;;2068721;28;20676;-73
2024/03/03 01:44:58;;;;;;;10.00;5.20;;;5.50;99.90;;;;;;2074272;28;20196;-72
2024/03/03 01:45:59;;;;;;;7.87;4.63;;;5.40;99.90;;;;;;2064213;28;20186;-73
2024/03/03 01:47:01;;;;;;;9.30;5.73;;;5.50;99.90;;;;;;2064838;28;20330;-74
2024/03/03 01:48:02;;;;;;;10.63;6.07;;;5.60;99.90;;;;;;2058800;28;20210;-73
2024/03/03 01:49:02;;;;;;;9.25;5.95;;;5.60;99.90;;;;;;2059403;28;20213;-72
2024/03/03 01:50:05;;;;;;;12.87;6.40;;;5.50;99.90;;;;;;2073511;28;20185;-75
2024/03/03 01:51:06;;;;;;;11.35;7.32;;;5.50;99.90;;;;;;2074544;28;20321;-73
2024/03/03 01:52:10;;;;;;;12.90;7.40;;;5.40;99.90;;;;;;2074014;28;20229;-74
2024/03/03 01:53:12;;;;;;;11.43;6.75;;;5.40;99.90;;;;;;2074299;28;20217;-73
2024/03/03 01:54:13;;;;;;;12.02;7.43;;;5.40;99.90;;;;;;2065830;28;20798;-73
2024/03/03 01:55:18;;;;;;;11.97;7.00;;;5.40;99.90;;;;;;2057732;28;20227;-75
2024/03/03 01:56:25;;;;;;;12.65;7.15;;;5.40;99.90;;;;;;2056050;28;20234;-75
2024/03/03 01:57:27;;;;;;;12.30;7.28;;;5.50;99.90;;;;;;2062955;28;20322;-74
2024/03/03 01:58:29;;;;;;;13.93;6.80;;;5.60;99.90;;;;;;2062411;28;20276;-75
2024/03/03 01:59:29;;;;;;;11.80;6.72;;;5.60;99.90;;;;;;2073485;28;21059;-75
2024/03/03 02:00:37;;;;;;;10.50;6.60;;;5.50;99.90;;;;;;2074279;28;20275;-75
2024/03/03 02:01:39;;;;;;;11.18;6.22;;;5.50;99.90;;;;;;2071249;28;20221;-74
2024/03/03 02:02:40;;;;;;;12.32;6.60;;;5.60;99.90;;;;;;2064656;28;20784;-75
2024/03/03 02:03:42;;;;;;;11.60;6.82;;;5.60;99.90;;;;;;2064554;28;20230;-74
2024/03/03 02:04:44;;;;;;;9.98;5.70;;;5.60;99.90;;;;;;2071462;28;20221;-74
2024/03/03 02:05:45;;;;;;;11.07;6.82;;;5.60;99.90;;;;;;2065760;28;20652;-73
2024/03/03 02:06:46;;;;;;;11.00;6.68;;;5.60;99.90;;;;;;2045247;28;20227;-71
2024/03/03 02:07:48;;;;;;;12.90;6.63;;;5.70;99.90;;;;;;2057361;28;20236;-73
2024/03/03 02:08:49;;;;;;;9.40;5.75;;;5.70;99.90;;;;;;2062922;28;20185;-75
2024/03/03 02:09:49;;;;;;;9.27;6.43;;;5.70;99.90;;;;;;2073616;28;20213;-73
2024/03/03 02:10:50;;;;;;;9.47;6.53;;;5.70;99.90;;;;;;2074922;28;20220;-73
2024/03/03 02:11:51;;;;;;;11.27;6.47;;;5.80;99.90;;;;;;2066440;28;20185;-72
2024/03/03 02:12:52;;;;;;;10.50;6.93;;;5.80;99.90;;;;;;2065591;28;20208;-73
2024/03/03 02:13:52;;;;;;;11.33;6.93;;;5.80;99.90;;;;;;2063074;28;20635;-74
2024/03/03 02:14:53;;;;;;;11.13;6.80;;;5.80;99.90;;;;;;2071936;28;20177;-73
2024/03/03 02:15:54;;;;;;;11.60;7.13;;;5.70;99.90;;;;;;2062371;28;20177;-73
2024/03/03 02:16:54;;;;;;;10.23;6.50;;;5.60;99.90;;;;;;2073565;28;20272;-75
2024/03/03 02:17:56;;;;;;;9.10;5.53;;;5.60;99.90;;;;;;2066029;28;20191;-73
2024/03/03 02:18:56;;;;;;;12.07;7.40;;;5.70;99.90;;;;;;2059354;28;20237;-73
2024/03/03 02:19:57;;;;;;;11.00;6.30;;;5.70;99.90;;;;;;2065980;28;20937;-73
2024/03/03 02:20:58;;;;;;;10.97;6.47;;;5.80;99.90;;;;;;2074314;28;20594;-73
2024/03/03 02:21:59;;;;;;;11.33;6.83;;;5.80;99.90;;;;;;2064965;28;20193;-73
2024/03/03 02:22:59;;;;;;;11.93;7.43;;;5.90;99.90;;;;;;2065417;28;20185;-73
2024/03/03 02:24:00;;;;;;;10.00;6.00;;;5.90;99.90;;;;;;2065298;28;20248;-74
2024/03/03 02:25:01;;;;;;;7.60;5.67;;;5.80;99.90;;;;;;2063218;28;20181;-75
2024/03/03 02:26:03;;;;;;;12.70;6.40;;;5.80;99.90;;;;;;2073389;28;20212;-75
2024/03/03 02:27:04;;;;;;;10.07;6.25;;;5.80;99.90;;;;;;2063547;28;20432;-74
2024/03/03 02:28:05;;;;;;;7.20;5.18;;;5.80;99.90;;;;;;2049816;28;20212;-74
2024/03/03 02:29:08;;;;;;;11.38;6.57;;;5.70;99.90;;;;;;2065230;28;20289;-73
2024/03/03 02:30:08;;;;;;;8.68;5.03;;;5.70;99.90;;;;;;2073705;28;20229;-75
2024/03/03 02:31:09;;;;;;;7.33;4.67;;;5.70;99.90;;;;;;2065296;28;20374;-73
2024/03/03 02:32:10;;;;;;;8.70;4.73;;;5.70;99.90;;;;;;2065657;28;20328;-74
2024/03/03 02:33:10;;;;;;;8.27;4.90;;;5.70;99.90;;;;;;2055742;28;20233;-74
2024/03/03 02:34:11;;;;;;;7.23;4.47;;;5.70;99.90;;;;;;2063102;28;20225;-74
2024/03/03 02:35:12;;;;;;;6.87;4.23;;;5.70;99.90;;;;;;2070794;28;20252;-73
2024/03/03 02:36:13;;;;;;;6.27;4.30;;;5.70;99.90;;;;;;2071964;28;20225;-74
2024/03/03 02:37:13;;;;;;;7.63;4.53;;;5.70;99.90;;;;;;2064536;28;20233;-74
2024/03/03 02:38:14;;;;;;;7.63;5.30;;;5.60;99.90;;;;;;2073981;28;20221;-74
2024/03/03 02:39:15;;;;;;;10.03;5.03;;;5.60;99.90;;;;;;2069555;28;20746;-73
2024/03/03 02:40:16;;;;;;;8.43;4.70;;;5.60;99.90;;;;;;2073537;28;20225;-74
2024/03/03 02:41:17;;;;;;;7.97;5.07;;;5.60;99.90;;;;;;2056725;28;20229;-74
2024/03/03 02:42:17;;;;;;;8.27;5.33;;;5.60;99.90;;;;;;2054079;28;20300;-74
2024/03/03 02:43:18;;;;;;;7.80;5.57;;;5.70;99.90;;;;;;2055077;28;20470;-74
2024/03/03 02:44:19;;;;;;;7.17;5.13;;;5.80;99.90;;;;;;2055920;28;20255;-74
2024/03/03 02:45:19;;;;;;;7.60;4.47;;;5.80;99.90;;;;;;2062994;28;20670;-74
2024/03/03 02:46:20;;;;;;;9.10;5.70;;;5.80;99.90;;;;;;2063546;28;20242;-74
2024/03/03 02:47:21;;;;;;;9.30;5.97;;;5.70;99.90;;;;;;2056215;28;20285;-74
2024/03/03 02:48:21;;;;;;;9.33;5.70;;;5.80;99.90;;;;;;2066069;28;20222;-74
2024/03/03 02:49:22;;;;;;;7.83;4.77;;;5.80;99.90;;;;;;2074881;28;20232;-75
2024/03/03 02:50:23;;;;;;;8.13;4.83;;;5.80;99.90;;;;;;2064889;28;20249;-74
2024/03/03 02:51:26;;;;;;;8.32;5.53;;;5.90;99.90;;;;;;2064429;28;20300;-74
2024/03/03 02:52:27;;;;;;;7.43;5.07;;;5.90;99.90;;;;;;2061910;28;20227;-74
2024/03/03 02:53:28;;;;;;;8.23;4.70;;;5.90;99.90;;;;;;2055143;28;20586;-74
2024/03/03 02:54:28;;;;;;;9.57;5.50;;;5.80;99.90;;;;;;2059031;28;20226;-74
2024/03/03 02:55:29;;;;;;;9.53;5.33;;;5.90;99.90;;;;;;2066595;28;20217;-74
2024/03/03 02:56:29;;;;;;;8.30;5.23;;;5.90;99.90;;;;;;2072013;28;20687;-74
2024/03/03 02:57:30;;;;;;;8.33;5.03;;;6.00;99.90;;;;;;2055176;28;20618;-74
2024/03/03 02:58:31;;;;;;;8.37;4.80;;;5.90;99.90;;;;;;2056151;28;20223;-74
2024/03/03 02:59:33;;;;;;;8.10;5.15;;;6.00;99.90;;;;;;2070619;28;20237;-74
2024/03/03 03:00:35;;;;;;;8.27;5.63;;;6.00;99.90;;;;;;2066799;28;20287;-74
2024/03/03 03:01:35;;;;;;;8.93;4.50;;;6.00;99.90;;;;;;2053787;28;20757;-74
2024/03/03 03:02:36;;;;;;;9.27;5.77;;;6.00;99.90;;;;;;2065239;28;20234;-73
2024/03/03 03:03:36;;;;;;;8.07;5.37;;;6.00;99.90;;;;;;2063870;28;20218;-74
2024/03/03 03:04:37;;;;;;;6.67;4.87;;;6.10;99.90;;;;;;2055631;28;20974;-74
2024/03/03 03:05:38;;;;;;;8.50;5.07;;;6.00;99.90;;;;;;2053818;28;20226;-74
2024/03/03 03:06:38;;;;;;;8.83;4.53;;;6.10;99.90;;;;;;2065533;28;20280;-74
2024/03/03 03:07:39;;;;;;;8.87;4.83;;;6.10;99.90;;;;;;2065080;28;20226;-74
2024/03/03 03:08:40;;;;;;;8.07;4.83;;;6.10;99.90;;;;;;2071493;28;20267;-74
2024/03/03 03:09:45;;;;;;;7.10;4.47;;;6.00;99.90;;;;;;2062031;28;20303;-73
2024/03/03 03:10:46;;;;;;;6.60;4.95;;;5.90;99.90;;;;;;2060330;28;20747;-73
2024/03/03 03:11:46;;;;;;;8.10;5.03;;;5.90;99.90;;;;;;2062511;28;20187;-73
2024/03/03 03:12:47;;;;;;;10.77;6.57;;;5.90;99.90;;;;;;2059460;28;20186;-74
2024/03/03 03:13:48;;;;;;;6.60;4.87;;;5.90;99.90;;;;;;2071120;28;20232;-74
2024/03/03 03:14:48;;;;;;;7.00;4.53;;;5.90;99.90;;;;;;2073552;28;20193;-73
2024/03/03 03:15:49;;;;;;;6.67;4.70;;;5.90;99.90;;;;;;2072001;28;20197;-75
2024/03/03 03:16:50;;;;;;;12.47;6.40;;;5.90;99.90;;;;;;2073492;28;20189;-73
2024/03/03 03:17:51;;;;;;;10.55;6.32;;;6.00;99.90;;;;;;2052955;28;20753;-75
2024/03/03 03:18:52;;;;;;;9.48;5.18;;;5.90;99.90;;;;;;2063693;28;20201;-74
2024/03/03 03:19:53;;;;;;;9.23;5.73;;;5.90;99.90;;;;;;2072193;28;20193;-74
2024/03/03 03:20:53;;;;;;;8.37;5.90;;;5.90;99.90;;;;;;2066216;28;20233;-74
2024/03/03 03:21:54;;;;;;;9.33;5.83;;;5.90;99.90;;;;;;2075561;28;20201;-74
2024/03/03 03:22:55;;;;;;;8.13;5.00;;;5.90;99.90;;;;;;2070709;28;20185;-74
2024/03/03 03:23:55;;;;;;;9.53;5.33;;;6.00;99.90;;;;;;2073632;28;20198;-74
2024/03/03 03:24:56;;;;;;;8.63;5.57;;;5.90;99.90;;;;;;2074287;28;20189;-74
2024/03/03 03:25:57;;;;;;;10.00;5.87;;;6.00;99.90;;;;;;2065756;28;20243;-73
2024/03/03 03:26:58;;;;;;;9.90;5.70;;;5.90;99.90;;;;;;2065100;28;20247;-74
2024/03/03 03:27:59;;;;;;;6.60;4.45;;;5.90;99.90;;;;;;2070110;28;20201;-73
2024/03/03 03:28:59;;;;;;;8.63;5.30;;;5.90;99.90;;;;;;2074948;28;20209;-74
2024/03/03 03:30:00;;;;;;;8.07;4.67;;;5.80;99.90;;;;;;2074640;28;20188;-74
2024/03/03 03:31:01;;;;;;;8.73;4.93;;;5.90;99.90;;;;;;2072357;28;20235;-74
2024/03/03 03:32:02;;;;;;;6.50;4.20;;;5.90;99.90;;;;;;2072977;28;20177;-74
2024/03/03 03:33:03;;;;;;;9.20;5.13;;;5.90;99.90;;;;;;2070973;28;20192;-73
2024/03/03 03:34:04;;;;;;;9.80;6.13;;;5.90;99.90;;;;;;2074992;28;20230;-73
2024/03/03 03:35:06;;;;;;;10.50;5.93;;;6.00;99.90;;;;;;2073100;28;20623;-74
2024/03/03 03:36:10;;;;;;;8.63;5.93;;;5.90;99.90;;;;;;2060578;28;20230;-74
2024/03/03 03:37:11;;;;;;;8.13;5.80;;;5.90;99.90;;;;;;2065217;28;20245;-74
2024/03/03 03:38:12;;;;;;;10.68;5.68;;;6.00;99.90;;;;;;2064152;28;20251;-74
2024/03/03 03:39:12;;;;;;;8.40;5.03;;;5.90;99.90;;;;;;2064884;28;20719;-73
2024/03/03 03:40:13;;;;;;;7.63;4.47;;;5.90;99.90;;;;;;2071565;28;20241;-74
2024/03/03 03:41:14;;;;;;;6.82;4.13;;;5.80;99.90;;;;;;2063413;28;20237;-75
2024/03/03 03:42:21;;;;;;;4.93;3.83;;;5.80;99.90;;;;;;2061295;28;20276;-75
2024/03/03 03:43:21;;;;;;;5.93;3.83;;;5.80;99.90;;;;;;2057201;28;20252;-74
2024/03/03 03:44:22;;;;;;;8.00;4.87;;;5.70;99.90;;;;;;2067306;28;20238;-75
2024/03/03 03:45:23;;;;;;;6.70;4.23;;;5.80;99.90;;;;;;2069843;28;20228;-76
2024/03/03 03:46:23;;;;;;;7.03;4.53;;;5.80;99.90;;;;;;2070215;28;20275;-74
2024/03/03 03:47:24;;;;;;;9.60;4.27;;;5.80;99.90;;;;;;2071091;28;20224;-75
2024/03/03 03:48:25;;;;;;;7.60;4.50;;;5.80;99.90;;;;;;2071182;28;20560;-74
2024/03/03 03:49:26;;;;;;;6.67;4.47;;;5.80;99.90;;;;;;2064060;28;20507;-74
2024/03/03 03:50:27;;;;;;;7.07;4.43;;;5.80;99.90;;;;;;2064405;28;20292;-75
2024/03/03 03:51:28;;;;;;;6.18;3.90;;;5.80;99.90;;;;;;2072719;28;20979;-75
2024/03/03 03:52:28;;;;;;;5.50;3.37;;;5.80;99.90;;;;;;2073089;28;20232;-74
2024/03/03 03:53:29;;;;;;;7.33;4.60;;;5.70;99.90;;;;;;2073353;28;20696;-75
2024/03/03 03:54:31;;;;;;;7.20;4.17;;;5.80;99.90;;;;;;2063800;28;20253;-74
2024/03/03 03:55:31;;;;;;;4.80;3.50;;;5.80;99.90;;;;;;2053945;28;20222;-74
2024/03/03 03:56:33;;;;;;;6.40;4.00;;;5.80;99.90;;;;;;2072263;28;20312;-74
2024/03/03 03:57:34;;;;;;;5.45;3.67;;;5.90;99.90;;;;;;2071281;28;20225;-74
2024/03/03 03:58:35;;;;;;;6.37;3.90;;;5.80;99.90;;;;;;2062546;28;20293;-74
2024/03/03 03:59:36;;;;;;;6.07;4.00;;;5.80;99.90;;;;;;2070389;28;20226;-75
2024/03/03 04:00:36;;;;;;;4.93;3.97;;;5.70;99.90;;;;;;2071288;28;20225;-74
2024/03/03 04:01:37;;;;;;;5.67;4.00;;;5.60;99.90;;;;;;2057020;28;20227;-75
2024/03/03 04:02:38;;;;;;;7.67;4.10;;;5.60;99.90;;;;;;2060719;28;20266;-74
2024/03/03 04:03:38;;;;;;;8.20;4.00;;;5.60;99.90;;;;;;2072772;28;20223;-74
2024/03/03 04:04:39;;;;;;;6.47;3.93;;;5.60;99.90;;;;;;2064760;28;20712;-76
2024/03/03 04:05:40;;;;;;;8.07;4.30;;;5.70;99.90;;;;;;2049640;28;20263;-74
2024/03/03 04:06:40;;;;;;;7.50;4.30;;;5.70;99.90;;;;;;2068617;28;20254;-75
2024/03/03 04:07:41;;;;;;;6.20;4.40;;;5.70;99.90;;;;;;2059851;28;20327;-75
2024/03/03 04:08:42;;;;;;;6.37;4.20;;;5.70;99.90;;;;;;2044666;28;20254;-75
2024/03/03 04:09:42;;;;;;;7.97;4.40;;;5.70;99.90;;;;;;2060891;28;20904;-75
2024/03/03 04:10:43;;;;;;;8.30;3.73;;;5.80;99.90;;;;;;2070037;28;20691;-75
2024/03/03 04:11:44;;;;;;;7.27;3.80;;;5.80;99.90;;;;;;2070413;28;20247;-74
2024/03/03 04:12:45;;;;;;;7.07;3.97;;;5.80;99.90;;;;;;2073370;28;20380;-75
2024/03/03 04:13:50;;;;;;;8.55;4.32;;;5.80;99.90;;;;;;2072320;28;20706;-73
2024/03/03 04:14:51;;;;;;;7.50;4.57;;;5.80;99.90;;;;;;2062655;28;20173;-74
2024/03/03 04:15:51;;;;;;;6.93;4.73;;;5.90;99.90;;;;;;2057861;28;20654;-74
2024/03/03 04:16:52;;;;;;;7.03;4.13;;;5.90;99.90;;;;;;2061089;28;20226;-74
2024/03/03 04:17:53;;;;;;;7.63;4.43;;;5.90;99.90;;;;;;2061264;28;20224;-74
2024/03/03 04:18:53;;;;;;;8.73;4.70;;;5.90;99.90;;;;;;2066304;28;20722;-75
2024/03/03 04:19:54;;;;;;;6.50;4.23;;;5.90;99.90;;;;;;2071362;28;20181;-74
2024/03/03 04:20:55;;;;;;;6.50;4.10;;;5.90;99.90;;;;;;2060575;28;20186;-74
2024/03/03 04:21:55;;;;;;;6.10;3.80;;;5.90;99.90;;;;;;2064053;28;20287;-74
2024/03/03 04:22:56;;;;;;;6.47;4.00;;;5.90;99.90;;;;;;2069739;28;20251;-74
2024/03/03 04:23:57;;;;;;;6.50;3.63;;;5.90;99.90;;;;;;2072066;28;20263;-74
2024/03/03 04:24:57;;;;;;;11.10;4.57;;;5.90;99.90;;;;;;2072572;28;20667;-74
2024/03/03 04:25:58;;;;;;;7.70;4.50;;;5.90;99.90;;;;;;2057467;28;20267;-74
2024/03/03 04:26:59;;;;;;;6.40;4.43;;;5.90;99.90;;;;;;2048711;28;20192;-74
2024/03/03 04:28:00;;;;;;;5.95;3.85;;;6.00;99.90;;;;;;2068109;28;20296;-75
2024/03/03 04:29:00;;;;;;;6.43;3.90;;;5.80;99.90;;;;;;2061141;28;20213;-74
2024/03/03 04:30:01;;;;;;;6.17;3.70;;;5.90;99.90;;;;;;2061652;28;20183;-75
2024/03/03 04:31:05;;;;;;;4.70;3.20;;;5.90;99.90;;;;;;2059619;28;20182;-75
2024/03/03 04:32:06;;;;;;;6.05;3.47;;;5.80;99.90;;;;;;2069090;28;20233;-74
2024/03/03 04:33:07;;;;;;;5.27;3.30;;;5.80;99.90;;;;;;2061966;28;20233;-74
2024/03/03 04:34:09;;;;;;;6.43;3.75;;;5.80;99.90;;;;;;2053598;28;20265;-74
2024/03/03 04:35:10;;;;;;;5.05;3.63;;;5.70;99.90;;;;;;2063592;28;20230;-73
2024/03/03 04:36:11;;;;;;;6.80;3.50;;;5.60;99.90;;;;;;2064525;28;20323;-75
2024/03/03 04:37:12;;;;;;;5.77;3.73;;;5.70;99.90;;;;;;2068188;28;20728;-75
2024/03/03 04:38:12;;;;;;;9.07;4.10;;;5.70;99.90;;;;;;2064132;28;20859;-75
2024/03/03 04:39:15;;;;;;;7.57;5.10;;;5.80;99.90;;;;;;2063497;28;20248;-74
2024/03/03 04:40:15;;;;;;;5.68;3.88;;;5.70;99.90;;;;;;2071988;28;20229;-75
2024/03/03 04:41:19;;;;;;;6.10;4.00;;;5.70;99.90;;;;;;2068929;28;20236;-75
2024/03/03 04:42:19;;;;;;;5.03;3.50;;;5.70;99.90;;;;;;2065548;28;20229;-75
2024/03/03 04:43:20;;;;;;;8.00;3.50;;;5.70;99.90;;;;;;2050471;28;20314;-75
2024/03/03 04:44:21;;;;;;;11.80;3.73;;;5.70;99.90;;;;;;2064244;28;20323;-74
2024/03/03 04:45:21;;;;;;;7.90;3.63;;;5.70;99.90;;;;;;2071076;28;20300;-76
2024/03/03 04:46:22;;;;;;;5.43;3.33;;;5.70;99.90;;;;;;2059229;28;20719;-75
2024/03/03 04:47:23;;;;;;;6.27;4.00;;;5.70;99.90;;;;;;2061179;28;20333;-75
2024/03/03 04:48:23;;;;;;;5.57;3.77;;;5.70;99.90;;;;;;2073725;28;20222;-75
2024/03/03 04:49:24;;;;;;;5.43;3.87;;;5.90;99.90;;;;;;2056271;28;20704;-75
2024/03/03 04:50:25;;;;;;;4.97;3.55;;;5.80;99.90;;;;;;2051139;28;20231;-75
2024/03/03 04:51:26;;;;;;;5.43;3.53;;;5.70;99.90;;;;;;2059363;28;20324;-75
2024/03/03 04:52:26;;;;;;;5.63;3.67;;;5.70;99.90;;;;;;2068929;28;20729;-75
2024/03/03 04:53:27;;;;;;;4.77;3.63;;;5.80;99.90;;;;;;2063926;28;20321;-75
2024/03/03 04:54:28;;;;;;;5.27;3.53;;;5.70;99.90;;;;;;2066466;28;20325;-75
2024/03/03 04:55:28;;;;;;;4.93;3.07;;;5.70;99.90;;;;;;2072393;28;20699;-74
2024/03/03 04:56:29;;;;;;;5.87;3.60;;;5.70;99.90;;;;;;2059967;28;20462;-75
2024/03/03 04:57:30;;;;;;;6.13;3.17;;;5.60;99.90;;;;;;2061995;28;20260;-75
2024/03/03 04:58:31;;;;;;;7.57;3.92;;;5.60;99.90;;;;;;2072707;28;20230;-75
2024/03/03 04:59:32;;;;;;;5.07;3.57;;;5.60;99.90;;;;;;2071925;28;20591;-75
2024/03/03 05:00:32;;;;;;;7.07;4.03;;;5.60;99.90;;;;;;2071717;28;20315;-75
2024/03/03 05:01:33;;;;;;;6.87;3.80;;;5.60;99.90;;;;;;2063934;28;20229;-75
2024/03/03 05:02:35;;;;;;;6.10;3.27;;;5.60;99.90;;;;;;2053382;28;20226;-76
2024/03/03 05:03:36;;;;;;;4.35;2.55;;;5.70;99.90;;;;;;2064838;28;20336;-75
2024/03/03 05:04:37;;;;;;;4.33;3.07;;;5.70;99.90;;;;;;2071723;28;21054;-75
2024/03/03 05:05:38;;;;;;;3.53;2.78;;;5.70;99.90;;;;;;2078431;28;20477;-75
2024/03/03 05:06:45;;;;;;;4.63;3.17;;;5.70;99.90;;;;;;2071693;28;20244;-75
2024/03/03 05:07:45;;;;;;;3.22;2.50;;;5.70;99.90;;;;;;2057557;28;20306;-75
2024/03/03 05:08:46;;;;;;;4.57;3.08;;;5.60;99.90;;;;;;2050799;28;20326;-74
2024/03/03 05:09:47;;;;;;;5.50;3.20;;;5.70;99.90;;;;;;2059400;28;20186;-75
2024/03/03 05:10:50;;;;;;;3.80;2.90;;;5.60;99.90;;;;;;2068446;28;20186;-74
2024/03/03 05:11:51;;;;;;;5.03;2.95;;;5.60;99.90;;;;;;2080618;28;20185;-75
2024/03/03 05:12:51;;;;;;;4.07;3.03;;;5.70;99.90;;;;;;2068679;28;20184;-74
2024/03/03 05:13:52;;;;;;;4.83;3.00;;;5.70;99.90;;;;;;2063443;28;20245;-75
2024/03/03 05:14:53;;;;;;;5.03;2.90;;;5.70;99.90;;;;;;2061429;28;20186;-75
2024/03/03 05:15:53;;;;;;;4.30;3.17;;;5.70;99.90;;;;;;2070746;28;20268;-75
2024/03/03 05:16:54;;;;;;;4.53;2.90;;;5.70;99.90;;;;;;2066859;28;20204;-74
2024/03/03 05:17:55;;;;;;;5.03;2.93;;;5.70;99.90;;;;;;2060425;28;20224;-75
2024/03/03 05:18:55;;;;;;;4.27;2.90;;;5.70;99.90;;;;;;2064000;28;20667;-75
2024/03/03 05:19:56;;;;;;;4.40;2.73;;;5.70;99.90;;;;;;2069394;28;20194;-75
2024/03/03 05:20:57;;;;;;;4.03;2.80;;;5.80;99.90;;;;;;2070020;28;20189;-75